sensor_id;sensor_type;location;lat;lon;timestamp;temperature;humidity
21169;DHT22;10742;51.816;8.662;2024-02-21T00:02:46;12.90;99.80
21169;DHT22;10742;51.816;8.662;2024-02-21T00:06:07;12.90;99.90
21169;DHT22;10742;51.816;8.662;2024-02-21T00:09:28;12.90;99.90
21169;DHT22;10742;51.816;8.662;2024-02-21T00:12:50;12.90;99.90
21169;DHT22;10742;51.816;8.662;2024-02-21T00:16:11;12.90;99.90
21169;DHT22;10742;51.816;8.662;2024-02-21T00:19:32;12.90;99.90
21169;DHT22;10742;51.816;8.662;2024-02-21T00:22:53;12.90;99.90
21169;DHT22;10742;51.816;8.662;2024-02-21T00:26:16;12.90;99.90
21169;DHT22;10742;51.816;8.662;2024-02-21T00:29:37;12.90;99.90
21169;DHT22;10742;51.816;8.662;2024-02-21T00:32:58;12.90;99.90
21169;DHT22;10742;51.816;8.662;2024-02-21T00:36:20;13.00;99.90
21169;DHT22;10742;51.816;8.662;2024-02-21T00:39:41;13.00;99.90
21169;DHT22;10742;51.816;8.662;2024-02-21T00:43:03;12.90;99.90
21169;DHT22;10742;51.816;8.662;2024-02-21T00:46:24;12.90;99.90
21169;DHT22;10742;51.816;8.662;2024-02-21T00:49:46;12.90;99.90
21169;DHT22;10742;51.816;8.662;2024-02-21T00:53:07;12.90;99.90
21169;DHT22;10742;51.816;8.662;2024-02-21T00:56:29;13.00;99.90
21169;DHT22;10742;51.816;8.662;2024-02-21T00:59:51;13.00;99.90
21169;DHT22;10742;51.816;8.662;2024-02-21T01:03:12;13.00;99.90
21169;DHT22;10742;51.816;8.662;2024-02-21T01:06:33;12.90;99.90
21169;DHT22;10742;51.816;8.662;2024-02-21T01:09:55;13.00;99.90
21169;DHT22;10742;51.816;8.662;2024-02-21T01:13:16;13.00;99.90
21169;DHT22;10742;51.816;8.662;2024-02-21T01:16:38;13.00;99.90
21169;DHT22;10742;51.816;8.662;2024-02-21T01:19:59;13.00;99.90
21169;DHT22;10742;51.816;8.662;2024-02-21T01:23:21;13.00;99.90
21169;DHT22;10742;51.816;8.662;2024-02-21T01:26:42;13.00;99.90
21169;DHT22;10742;51.816;8.662;2024-02-21T01:30:05;13.00;99.90
21169;DHT22;10742;51.816;8.662;2024-02-21T01:33:26;13.00;99.90
21169;DHT22;10742;51.816;8.662;2024-02-21T01:36:48;13.00;99.90
21169;DHT22;10742;51.816;8.662;2024-02-21T01:40:10;13.00;99.90
21169;DHT22;10742;51.816;8.662;2024-02-21T01:43:31;13.00;99.90
21169;DHT22;10742;51.816;8.662;2024-02-21T01:46:53;13.00;99.90
21169;DHT22;10742;51.816;8.662;2024-02-21T01:50:15;13.00;99.90
21169;DHT22;10742;51.816;8.662;2024-02-21T01:53:42;13.00;99.90
21169;DHT22;10742;51.816;8.662;2024-02-21T01:57:04;13.00;99.90
21169;DHT22;10742;51.816;8.662;2024-02-21T02:00:26;13.00;99.90
21169;DHT22;10742;51.816;8.662;2024-02-21T02:03:49;13.00;99.90
21169;DHT22;10742;51.816;8.662;2024-02-21T02:07:10;13.00;99.90
21169;DHT22;10742;51.816;8.662;2024-02-21T02:10:31;13.00;99.90
21169;DHT22;10742;51.816;8.662;2024-02-21T02:13:53;13.00;99.90
21169;DHT22;10742;51.816;8.662;2024-02-21T02:17:14;13.00;99.90
21169;DHT22;10742;51.816;8.662;2024-02-21T02:20:36;13.00;99.90
21169;DHT22;10742;51.816;8.662;2024-02-21T02:23:58;13.00;99.90
21169;DHT22;10742;51.816;8.662;2024-02-21T02:27:20;13.00;99.90
21169;DHT22;10742;51.816;8.662;2024-02-21T02:30:41;13.00;99.90
21169;DHT22;10742;51.816;8.662;2024-02-21T02:34:03;13.00;99.90
21169;DHT22;10742;51.816;8.662;2024-02-21T02:37:24;13.10;99.90
21169;DHT22;10742;51.816;8.662;2024-02-21T02:40:46;13.00;99.90
21169;DHT22;10742;51.816;8.662;2024-02-21T02:44:07;13.00;99.90
21169;DHT22;10742;51.816;8.662;2024-02-21T02:47:28;13.10;99.90
21169;DHT22;10742;51.816;8.662;2024-02-21T02:50:50;13.10;99.90
21169;DHT22;10742;51.816;8.662;2024-02-21T02:54:11;13.00;99.90
21169;DHT22;10742;51.816;8.662;2024-02-21T02:57:33;13.10;99.90
21169;DHT22;10742;51.816;8.662;2024-02-21T03:00:54;13.10;99.90
21169;DHT22;10742;51.816;8.662;2024-02-21T03:04:15;13.00;99.80
21169;DHT22;10742;51.816;8.662;2024-02-21T03:07:37;13.00;99.80
21169;DHT22;10742;51.816;8.662;2024-02-21T03:10:58;13.00;99.80
21169;DHT22;10742;51.816;8.662;2024-02-21T03:14:20;13.10;99.80
21169;DHT22;10742;51.816;8.662;2024-02-21T03:17:42;13.10;99.80
21169;DHT22;10742;51.816;8.662;2024-02-21T03:21:03;13.10;99.80
21169;DHT22;10742;51.816;8.662;2024-02-21T03:24:24;13.10;99.80
21169;DHT22;10742;51.816;8.662;2024-02-21T03:27:46;13.10;99.80
21169;DHT22;10742;51.816;8.662;2024-02-21T03:31:07;13.10;99.70
21169;DHT22;10742;51.816;8.662;2024-02-21T03:34:28;13.10;99.70
21169;DHT22;10742;51.816;8.662;2024-02-21T03:37:50;13.10;99.70
21169;DHT22;10742;51.816;8.662;2024-02-21T03:41:11;13.10;99.60
21169;DHT22;10742;51.816;8.662;2024-02-21T03:44:33;13.10;99.70
21169;DHT22;10742;51.816;8.662;2024-02-21T03:47:55;13.10;99.60
21169;DHT22;10742;51.816;8.662;2024-02-21T03:51:16;13.10;99.60
21169;DHT22;10742;51.816;8.662;2024-02-21T03:54:38;13.10;99.60
21169;DHT22;10742;51.816;8.662;2024-02-21T03:57:59;13.10;99.50
21169;DHT22;10742;51.816;8.662;2024-02-21T04:01:21;13.10;99.60
21169;DHT22;10742;51.816;8.662;2024-02-21T04:04:45;13.10;99.50
21169;DHT22;10742;51.816;8.662;2024-02-21T04:08:09;13.10;99.50
21169;DHT22;10742;51.816;8.662;2024-02-21T04:11:30;13.10;99.60
21169;DHT22;10742;51.816;8.662;2024-02-21T04:14:52;13.10;99.90
21169;DHT22;10742;51.816;8.662;2024-02-21T04:18:13;13.10;99.50
21169;DHT22;10742;51.816;8.662;2024-02-21T04:21:36;13.10;99.50
21169;DHT22;10742;51.816;8.662;2024-02-21T04:24:57;13.10;99.50
21169;DHT22;10742;51.816;8.662;2024-02-21T04:28:19;13.10;99.50
21169;DHT22;10742;51.816;8.662;2024-02-21T04:31:40;13.10;99.40
21169;DHT22;10742;51.816;8.662;2024-02-21T04:35:02;13.10;99.40
21169;DHT22;10742;51.816;8.662;2024-02-21T04:38:23;13.10;99.40
21169;DHT22;10742;51.816;8.662;2024-02-21T04:41:44;13.10;99.40
21169;DHT22;10742;51.816;8.662;2024-02-21T04:45:06;13.10;99.40
21169;DHT22;10742;51.816;8.662;2024-02-21T04:48:27;13.00;99.30
21169;DHT22;10742;51.816;8.662;2024-02-21T04:51:48;13.10;99.40
21169;DHT22;10742;51.816;8.662;2024-02-21T04:55:10;13.10;99.70
21169;DHT22;10742;51.816;8.662;2024-02-21T04:58:31;13.10;99.30
21169;DHT22;10742;51.816;8.662;2024-02-21T05:01:52;13.10;99.40
21169;DHT22;10742;51.816;8.662;2024-02-21T05:05:13;13.10;99.30
21169;DHT22;10742;51.816;8.662;2024-02-21T05:08:36;13.10;99.40
21169;DHT22;10742;51.816;8.662;2024-02-21T05:11:57;13.10;99.30
21169;DHT22;10742;51.816;8.662;2024-02-21T05:15:21;13.10;99.30
21169;DHT22;10742;51.816;8.662;2024-02-21T05:18:42;13.10;99.20
21169;DHT22;10742;51.816;8.662;2024-02-21T05:22:04;13.10;99.60
21169;DHT22;10742;51.816;8.662;2024-02-21T05:25:25;13.10;99.20
21169;DHT22;10742;51.816;8.662;2024-02-21T05:28:47;13.10;99.60
21169;DHT22;10742;51.816;8.662;2024-02-21T05:32:08;13.10;99.20
21169;DHT22;10742;51.816;8.662;2024-02-21T05:35:29;13.10;99.20
21169;DHT22;10742;51.816;8.662;2024-02-21T05:38:51;13.10;99.20
21169;DHT22;10742;51.816;8.662;2024-02-21T05:42:12;13.10;99.20
21169;DHT22;10742;51.816;8.662;2024-02-21T05:45:34;13.00;99.20
21169;DHT22;10742;51.816;8.662;2024-02-21T05:48:55;13.00;99.20
21169;DHT22;10742;51.816;8.662;2024-02-21T05:52:16;13.00;99.20
21169;DHT22;10742;51.816;8.662;2024-02-21T05:55:38;13.00;99.20
21169;DHT22;10742;51.816;8.662;2024-02-21T05:58:59;13.00;99.50
21169;DHT22;10742;51.816;8.662;2024-02-21T06:02:21;13.00;99.20
21169;DHT22;10742;51.816;8.662;2024-02-21T06:05:43;13.00;99.20
21169;DHT22;10742;51.816;8.662;2024-02-21T06:09:04;13.00;99.20
21169;DHT22;10742;51.816;8.662;2024-02-21T06:12:26;12.90;99.20
21169;DHT22;10742;51.816;8.662;2024-02-21T06:15:47;12.90;99.20
21169;DHT22;10742;51.816;8.662;2024-02-21T06:19:08;12.90;99.20
21169;DHT22;10742;51.816;8.662;2024-02-21T06:22:30;13.00;99.20
21169;DHT22;10742;51.816;8.662;2024-02-21T06:25:51;13.00;99.30
21169;DHT22;10742;51.816;8.662;2024-02-21T06:29:13;13.00;99.30
21169;DHT22;10742;51.816;8.662;2024-02-21T06:32:34;12.90;99.20
21169;DHT22;10742;51.816;8.662;2024-02-21T06:35:56;13.00;99.20
21169;DHT22;10742;51.816;8.662;2024-02-21T06:39:18;12.90;99.20
21169;DHT22;10742;51.816;8.662;2024-02-21T06:42:39;13.00;99.20
21169;DHT22;10742;51.816;8.662;2024-02-21T06:46:00;13.00;99.20
21169;DHT22;10742;51.816;8.662;2024-02-21T06:49:22;12.90;99.20
21169;DHT22;10742;51.816;8.662;2024-02-21T06:52:44;12.90;99.60
21169;DHT22;10742;51.816;8.662;2024-02-21T06:56:05;12.90;99.20
21169;DHT22;10742;51.816;8.662;2024-02-21T06:59:27;12.90;99.20
21169;DHT22;10742;51.816;8.662;2024-02-21T07:02:48;13.00;99.20
21169;DHT22;10742;51.816;8.662;2024-02-21T07:06:09;13.00;99.20
21169;DHT22;10742;51.816;8.662;2024-02-21T07:09:31;13.00;99.20
21169;DHT22;10742;51.816;8.662;2024-02-21T07:12:52;13.00;99.20
21169;DHT22;10742;51.816;8.662;2024-02-21T07:16:14;13.00;99.20
21169;DHT22;10742;51.816;8.662;2024-02-21T07:19:35;13.00;99.20
21169;DHT22;10742;51.816;8.662;2024-02-21T07:22:56;13.00;99.20
21169;DHT22;10742;51.816;8.662;2024-02-21T07:26:18;13.00;99.20
21169;DHT22;10742;51.816;8.662;2024-02-21T07:29:39;13.00;99.20
21169;DHT22;10742;51.816;8.662;2024-02-21T07:33:00;13.00;99.20
21169;DHT22;10742;51.816;8.662;2024-02-21T07:36:31;13.00;99.20
21169;DHT22;10742;51.816;8.662;2024-02-21T07:39:52;13.00;99.10
21169;DHT22;10742;51.816;8.662;2024-02-21T07:43:14;13.10;99.20
21169;DHT22;10742;51.816;8.662;2024-02-21T07:46:35;13.10;99.20
21169;DHT22;10742;51.816;8.662;2024-02-21T07:49:56;13.10;99.20
21169;DHT22;10742;51.816;8.662;2024-02-21T07:53:21;13.10;99.10
21169;DHT22;10742;51.816;8.662;2024-02-21T07:56:49;13.20;99.10
21169;DHT22;10742;51.816;8.662;2024-02-21T08:00:11;13.20;99.10
21169;DHT22;10742;51.816;8.662;2024-02-21T08:03:38;13.30;99.10
21169;DHT22;10742;51.816;8.662;2024-02-21T08:06:59;13.30;99.10
21169;DHT22;10742;51.816;8.662;2024-02-21T08:10:24;13.40;99.20
21169;DHT22;10742;51.816;8.662;2024-02-21T08:13:45;13.40;99.10
21169;DHT22;10742;51.816;8.662;2024-02-21T08:17:06;13.40;99.00
21169;DHT22;10742;51.816;8.662;2024-02-21T08:20:28;13.50;99.00
21169;DHT22;10742;51.816;8.662;2024-02-21T08:23:49;13.50;98.90
21169;DHT22;10742;51.816;8.662;2024-02-21T08:27:12;13.60;98.80
21169;DHT22;10742;51.816;8.662;2024-02-21T08:30:33;13.60;98.80
21169;DHT22;10742;51.816;8.662;2024-02-21T08:33:55;13.60;98.70
21169;DHT22;10742;51.816;8.662;2024-02-21T08:37:17;13.70;98.70
21169;DHT22;10742;51.816;8.662;2024-02-21T08:40:39;13.70;98.60
21169;DHT22;10742;51.816;8.662;2024-02-21T08:44:00;13.70;98.70
21169;DHT22;10742;51.816;8.662;2024-02-21T08:47:21;13.80;98.60
21169;DHT22;10742;51.816;8.662;2024-02-21T08:50:43;13.80;98.50
21169;DHT22;10742;51.816;8.662;2024-02-21T08:54:04;13.90;98.50
21169;DHT22;10742;51.816;8.662;2024-02-21T08:57:25;13.90;98.50
21169;DHT22;10742;51.816;8.662;2024-02-21T09:00:46;13.90;98.40
21169;DHT22;10742;51.816;8.662;2024-02-21T09:04:08;14.00;98.40
21169;DHT22;10742;51.816;8.662;2024-02-21T09:07:29;14.00;98.40
21169;DHT22;10742;51.816;8.662;2024-02-21T09:10:50;14.10;98.20
21169;DHT22;10742;51.816;8.662;2024-02-21T09:14:12;14.10;98.10
21169;DHT22;10742;51.816;8.662;2024-02-21T09:17:33;14.10;98.00
21169;DHT22;10742;51.816;8.662;2024-02-21T09:20:54;14.20;98.00
21169;DHT22;10742;51.816;8.662;2024-02-21T09:24:17;14.20;97.90
21169;DHT22;10742;51.816;8.662;2024-02-21T09:27:38;14.20;97.80
21169;DHT22;10742;51.816;8.662;2024-02-21T09:30:59;14.30;97.70
21169;DHT22;10742;51.816;8.662;2024-02-21T09:34:21;14.30;97.50
21169;DHT22;10742;51.816;8.662;2024-02-21T09:37:43;14.40;97.50
21169;DHT22;10742;51.816;8.662;2024-02-21T09:44:39;14.40;97.20
21169;DHT22;10742;51.816;8.662;2024-02-21T09:52:05;14.50;97.00
21169;DHT22;10742;51.816;8.662;2024-02-21T09:55:27;14.50;97.20
21169;DHT22;10742;51.816;8.662;2024-02-21T09:58:50;14.60;97.60
21169;DHT22;10742;51.816;8.662;2024-02-21T10:02:11;14.60;97.20
21169;DHT22;10742;51.816;8.662;2024-02-21T10:05:37;14.70;97.20
21169;DHT22;10742;51.816;8.662;2024-02-21T10:08:59;14.80;97.00
21169;DHT22;10742;51.816;8.662;2024-02-21T10:12:20;14.80;97.10
21169;DHT22;10742;51.816;8.662;2024-02-21T10:15:42;14.90;97.00
21169;DHT22;10742;51.816;8.662;2024-02-21T10:19:03;14.90;97.20
21169;DHT22;10742;51.816;8.662;2024-02-21T10:22:25;15.00;96.80
21169;DHT22;10742;51.816;8.662;2024-02-21T10:25:47;15.00;96.70
21169;DHT22;10742;51.816;8.662;2024-02-21T10:29:10;15.00;96.70
21169;DHT22;10742;51.816;8.662;2024-02-21T10:32:31;15.10;96.80
21169;DHT22;10742;51.816;8.662;2024-02-21T10:35:53;15.10;96.70
21169;DHT22;10742;51.816;8.662;2024-02-21T10:39:14;15.20;96.70
21169;DHT22;10742;51.816;8.662;2024-02-21T10:42:37;15.30;96.60
21169;DHT22;10742;51.816;8.662;2024-02-21T10:46:02;15.30;96.40
21169;DHT22;10742;51.816;8.662;2024-02-21T10:49:26;15.30;96.40
21169;DHT22;10742;51.816;8.662;2024-02-21T10:56:31;15.40;96.30
21169;DHT22;10742;51.816;8.662;2024-02-21T10:59:53;15.50;96.00
21169;DHT22;10742;51.816;8.662;2024-02-21T11:03:15;15.50;96.10
21169;DHT22;10742;51.816;8.662;2024-02-21T11:06:38;15.50;96.00
21169;DHT22;10742;51.816;8.662;2024-02-21T11:09:59;15.50;95.70
21169;DHT22;10742;51.816;8.662;2024-02-21T11:13:30;15.50;95.80
21169;DHT22;10742;51.816;8.662;2024-02-21T11:16:52;15.50;95.40
21169;DHT22;10742;51.816;8.662;2024-02-21T11:20:14;15.60;95.80
21169;DHT22;10742;51.816;8.662;2024-02-21T11:23:36;15.60;95.60
21169;DHT22;10742;51.816;8.662;2024-02-21T11:27:13;15.60;95.60
21169;DHT22;10742;51.816;8.662;2024-02-21T11:30:36;15.60;95.10
21169;DHT22;10742;51.816;8.662;2024-02-21T11:34:00;15.60;95.80
21169;DHT22;10742;51.816;8.662;2024-02-21T11:37:25;15.60;95.40
21169;DHT22;10742;51.816;8.662;2024-02-21T11:40:47;15.60;95.30
21169;DHT22;10742;51.816;8.662;2024-02-21T11:44:08;15.70;95.40
21169;DHT22;10742;51.816;8.662;2024-02-21T11:47:29;15.70;95.40
21169;DHT22;10742;51.816;8.662;2024-02-21T11:50:55;15.70;95.30
21169;DHT22;10742;51.816;8.662;2024-02-21T11:54:16;15.80;95.00
21169;DHT22;10742;51.816;8.662;2024-02-21T11:57:38;15.80;95.10
21169;DHT22;10742;51.816;8.662;2024-02-21T12:01:04;15.80;95.10
21169;DHT22;10742;51.816;8.662;2024-02-21T12:04:25;15.70;95.10
21169;DHT22;10742;51.816;8.662;2024-02-21T12:07:47;15.70;95.20
21169;DHT22;10742;51.816;8.662;2024-02-21T12:11:24;15.80;95.20
21169;DHT22;10742;51.816;8.662;2024-02-21T12:14:45;15.80;94.80
21169;DHT22;10742;51.816;8.662;2024-02-21T12:18:06;15.80;95.00
21169;DHT22;10742;51.816;8.662;2024-02-21T12:21:30;15.80;95.00
21169;DHT22;10742;51.816;8.662;2024-02-21T12:24:53;15.80;94.80
21169;DHT22;10742;51.816;8.662;2024-02-21T12:28:16;15.70;94.90
21169;DHT22;10742;51.816;8.662;2024-02-21T12:31:38;15.70;95.00
21169;DHT22;10742;51.816;8.662;2024-02-21T12:35:00;15.70;95.00
21169;DHT22;10742;51.816;8.662;2024-02-21T12:38:22;15.70;95.00
21169;DHT22;10742;51.816;8.662;2024-02-21T12:41:43;15.60;95.00
21169;DHT22;10742;51.816;8.662;2024-02-21T12:45:05;15.60;95.00
21169;DHT22;10742;51.816;8.662;2024-02-21T12:48:26;15.50;95.00
21169;DHT22;10742;51.816;8.662;2024-02-21T12:51:48;15.50;95.10
21169;DHT22;10742;51.816;8.662;2024-02-21T12:55:09;15.50;95.30
21169;DHT22;10742;51.816;8.662;2024-02-21T12:58:32;15.50;95.50
21169;DHT22;10742;51.816;8.662;2024-02-21T13:01:53;15.60;95.50
21169;DHT22;10742;51.816;8.662;2024-02-21T13:05:14;15.60;95.50
21169;DHT22;10742;51.816;8.662;2024-02-21T13:08:39;15.70;95.50
21169;DHT22;10742;51.816;8.662;2024-02-21T13:12:01;15.70;95.30
21169;DHT22;10742;51.816;8.662;2024-02-21T13:15:23;15.70;95.30
21169;DHT22;10742;51.816;8.662;2024-02-21T13:18:44;15.70;95.20
21169;DHT22;10742;51.816;8.662;2024-02-21T13:22:08;15.80;95.20
21169;DHT22;10742;51.816;8.662;2024-02-21T13:25:29;15.80;95.10
21169;DHT22;10742;51.816;8.662;2024-02-21T13:28:51;15.70;95.00
21169;DHT22;10742;51.816;8.662;2024-02-21T13:32:12;15.70;95.00
21169;DHT22;10742;51.816;8.662;2024-02-21T13:35:33;15.70;95.00
21169;DHT22;10742;51.816;8.662;2024-02-21T13:38:57;15.70;95.00
21169;DHT22;10742;51.816;8.662;2024-02-21T13:42:19;15.70;95.00
21169;DHT22;10742;51.816;8.662;2024-02-21T13:45:40;15.70;94.90
21169;DHT22;10742;51.816;8.662;2024-02-21T13:49:05;15.70;94.90
21169;DHT22;10742;51.816;8.662;2024-02-21T13:52:28;15.70;94.90
21169;DHT22;10742;51.816;8.662;2024-02-21T13:55:49;15.70;94.60
21169;DHT22;10742;51.816;8.662;2024-02-21T13:59:15;15.70;94.40
21169;DHT22;10742;51.816;8.662;2024-02-21T14:02:37;15.70;94.10
21169;DHT22;10742;51.816;8.662;2024-02-21T14:05:59;15.70;94.20
21169;DHT22;10742;51.816;8.662;2024-02-21T14:09:21;15.60;94.30
21169;DHT22;10742;51.816;8.662;2024-02-21T14:12:42;15.60;94.40
21169;DHT22;10742;51.816;8.662;2024-02-21T14:16:09;15.60;94.40
21169;DHT22;10742;51.816;8.662;2024-02-21T14:19:32;15.60;94.10
21169;DHT22;10742;51.816;8.662;2024-02-21T14:22:53;15.70;94.40
21169;DHT22;10742;51.816;8.662;2024-02-21T14:26:14;15.70;94.40
21169;DHT22;10742;51.816;8.662;2024-02-21T14:29:36;15.70;94.40
21169;DHT22;10742;51.816;8.662;2024-02-21T14:32:58;15.70;94.40
21169;DHT22;10742;51.816;8.662;2024-02-21T14:36:22;15.70;94.30
21169;DHT22;10742;51.816;8.662;2024-02-21T14:39:45;15.80;94.40
21169;DHT22;10742;51.816;8.662;2024-02-21T14:43:06;15.80;94.30
21169;DHT22;10742;51.816;8.662;2024-02-21T14:46:27;15.80;94.50
21169;DHT22;10742;51.816;8.662;2024-02-21T14:49:51;15.90;94.10
21169;DHT22;10742;51.816;8.662;2024-02-21T14:53:12;15.90;94.00
21169;DHT22;10742;51.816;8.662;2024-02-21T14:56:34;15.90;94.00
21169;DHT22;10742;51.816;8.662;2024-02-21T14:59:55;15.90;93.80
21169;DHT22;10742;51.816;8.662;2024-02-21T15:03:20;15.90;93.80
21169;DHT22;10742;51.816;8.662;2024-02-21T15:06:41;16.00;93.80
21169;DHT22;10742;51.816;8.662;2024-02-21T15:10:04;15.90;93.70
21169;DHT22;10742;51.816;8.662;2024-02-21T15:13:25;15.90;93.60
21169;DHT22;10742;51.816;8.662;2024-02-21T15:16:47;15.90;93.60
21169;DHT22;10742;51.816;8.662;2024-02-21T15:20:08;15.90;93.60
21169;DHT22;10742;51.816;8.662;2024-02-21T15:23:30;15.90;93.60
21169;DHT22;10742;51.816;8.662;2024-02-21T15:26:52;15.90;93.50
21169;DHT22;10742;51.816;8.662;2024-02-21T15:30:13;15.90;93.40
21169;DHT22;10742;51.816;8.662;2024-02-21T15:33:35;15.80;93.30
21169;DHT22;10742;51.816;8.662;2024-02-21T15:36:58;15.80;93.30
21169;DHT22;10742;51.816;8.662;2024-02-21T15:40:20;15.70;93.30
21169;DHT22;10742;51.816;8.662;2024-02-21T15:43:41;15.70;93.30
21169;DHT22;10742;51.816;8.662;2024-02-21T15:47:05;15.60;93.30
21169;DHT22;10742;51.816;8.662;2024-02-21T15:50:27;15.60;93.30
21169;DHT22;10742;51.816;8.662;2024-02-21T15:53:50;15.60;93.30
21169;DHT22;10742;51.816;8.662;2024-02-21T15:57:11;15.50;93.30
21169;DHT22;10742;51.816;8.662;2024-02-21T16:00:32;15.40;93.30
21169;DHT22;10742;51.816;8.662;2024-02-21T16:03:54;15.40;93.40
21169;DHT22;10742;51.816;8.662;2024-02-21T16:07:17;15.30;93.40
21169;DHT22;10742;51.816;8.662;2024-02-21T16:10:39;15.30;93.40
21169;DHT22;10742;51.816;8.662;2024-02-21T16:14:01;15.30;93.40
21169;DHT22;10742;51.816;8.662;2024-02-21T16:17:26;15.20;93.40
21169;DHT22;10742;51.816;8.662;2024-02-21T16:20:47;15.10;93.50
21169;DHT22;10742;51.816;8.662;2024-02-21T16:24:08;15.10;93.60
21169;DHT22;10742;51.816;8.662;2024-02-21T16:27:30;15.10;93.60
21169;DHT22;10742;51.816;8.662;2024-02-21T16:30:52;15.00;93.60
21169;DHT22;10742;51.816;8.662;2024-02-21T16:34:14;15.00;93.60
21169;DHT22;10742;51.816;8.662;2024-02-21T16:37:36;15.00;93.70
21169;DHT22;10742;51.816;8.662;2024-02-21T16:40:58;15.00;93.80
21169;DHT22;10742;51.816;8.662;2024-02-21T16:44:21;14.90;93.80
21169;DHT22;10742;51.816;8.662;2024-02-21T16:47:42;14.90;93.80
21169;DHT22;10742;51.816;8.662;2024-02-21T16:51:04;14.90;93.80
21169;DHT22;10742;51.816;8.662;2024-02-21T16:54:26;14.90;93.80
21169;DHT22;10742;51.816;8.662;2024-02-21T16:57:47;14.80;93.80
21169;DHT22;10742;51.816;8.662;2024-02-21T17:01:09;14.80;93.80
21169;DHT22;10742;51.816;8.662;2024-02-21T17:04:31;14.80;93.90
21169;DHT22;10742;51.816;8.662;2024-02-21T17:07:53;14.80;93.80
21169;DHT22;10742;51.816;8.662;2024-02-21T17:11:15;14.70;93.80
21169;DHT22;10742;51.816;8.662;2024-02-21T17:14:37;14.70;93.80
21169;DHT22;10742;51.816;8.662;2024-02-21T17:18:01;14.70;93.80
21169;DHT22;10742;51.816;8.662;2024-02-21T17:21:22;14.70;93.80
21169;DHT22;10742;51.816;8.662;2024-02-21T17:24:43;14.60;93.80
21169;DHT22;10742;51.816;8.662;2024-02-21T17:28:05;14.60;93.80
21169;DHT22;10742;51.816;8.662;2024-02-21T17:31:26;14.60;93.80
21169;DHT22;10742;51.816;8.662;2024-02-21T17:34:48;14.60;93.80
21169;DHT22;10742;51.816;8.662;2024-02-21T17:38:09;14.60;93.80
21169;DHT22;10742;51.816;8.662;2024-02-21T17:41:31;14.50;93.80
21169;DHT22;10742;51.816;8.662;2024-02-21T17:44:52;14.50;93.80
21169;DHT22;10742;51.816;8.662;2024-02-21T17:48:14;14.50;93.80
21169;DHT22;10742;51.816;8.662;2024-02-21T17:51:35;14.50;93.60
21169;DHT22;10742;51.816;8.662;2024-02-21T17:54:56;14.50;93.40
21169;DHT22;10742;51.816;8.662;2024-02-21T17:58:20;14.50;93.40
21169;DHT22;10742;51.816;8.662;2024-02-21T18:01:42;14.50;93.50
21169;DHT22;10742;51.816;8.662;2024-02-21T18:05:03;14.40;93.40
21169;DHT22;10742;51.816;8.662;2024-02-21T18:08:25;14.50;93.40
21169;DHT22;10742;51.816;8.662;2024-02-21T18:11:46;14.40;93.30
21169;DHT22;10742;51.816;8.662;2024-02-21T18:15:08;14.40;93.30
21169;DHT22;10742;51.816;8.662;2024-02-21T18:18:32;14.40;93.20
21169;DHT22;10742;51.816;8.662;2024-02-21T18:21:53;14.40;93.20
21169;DHT22;10742;51.816;8.662;2024-02-21T18:25:14;14.40;93.00
21169;DHT22;10742;51.816;8.662;2024-02-21T18:28:36;14.40;92.80
21169;DHT22;10742;51.816;8.662;2024-02-21T18:31:58;14.40;92.70
21169;DHT22;10742;51.816;8.662;2024-02-21T18:35:20;14.40;92.60
21169;DHT22;10742;51.816;8.662;2024-02-21T18:38:42;14.40;92.50
21169;DHT22;10742;51.816;8.662;2024-02-21T18:42:03;14.40;92.30
21169;DHT22;10742;51.816;8.662;2024-02-21T18:45:27;14.40;92.20
21169;DHT22;10742;51.816;8.662;2024-02-21T18:48:48;14.40;92.10
21169;DHT22;10742;51.816;8.662;2024-02-21T18:52:09;14.40;92.20
21169;DHT22;10742;51.816;8.662;2024-02-21T18:55:31;14.40;92.10
21169;DHT22;10742;51.816;8.662;2024-02-21T18:58:53;14.40;92.10
21169;DHT22;10742;51.816;8.662;2024-02-21T19:02:16;14.30;92.10
21169;DHT22;10742;51.816;8.662;2024-02-21T19:05:37;14.30;92.10
21169;DHT22;10742;51.816;8.662;2024-02-21T19:08:58;14.30;92.20
21169;DHT22;10742;51.816;8.662;2024-02-21T19:12:19;14.30;92.20
21169;DHT22;10742;51.816;8.662;2024-02-21T19:15:41;14.30;92.30
21169;DHT22;10742;51.816;8.662;2024-02-21T19:19:02;14.20;92.50
21169;DHT22;10742;51.816;8.662;2024-02-21T19:22:24;14.20;92.60
21169;DHT22;10742;51.816;8.662;2024-02-21T19:25:50;14.20;92.70
21169;DHT22;10742;51.816;8.662;2024-02-21T19:29:11;14.10;92.80
21169;DHT22;10742;51.816;8.662;2024-02-21T19:32:32;14.10;93.00
21169;DHT22;10742;51.816;8.662;2024-02-21T19:35:54;14.00;93.10
21169;DHT22;10742;51.816;8.662;2024-02-21T19:39:15;13.90;93.30
21169;DHT22;10742;51.816;8.662;2024-02-21T19:42:36;13.90;93.40
21169;DHT22;10742;51.816;8.662;2024-02-21T19:45:58;13.80;93.60
21169;DHT22;10742;51.816;8.662;2024-02-21T19:49:19;13.80;93.70
21169;DHT22;10742;51.816;8.662;2024-02-21T19:52:41;13.70;93.80
21169;DHT22;10742;51.816;8.662;2024-02-21T19:56:03;13.70;94.00
21169;DHT22;10742;51.816;8.662;2024-02-21T19:59:27;13.60;94.20
21169;DHT22;10742;51.816;8.662;2024-02-21T20:02:48;13.60;94.30
21169;DHT22;10742;51.816;8.662;2024-02-21T20:06:09;13.50;94.50
21169;DHT22;10742;51.816;8.662;2024-02-21T20:09:31;13.50;94.60
21169;DHT22;10742;51.816;8.662;2024-02-21T20:12:52;13.50;94.80
21169;DHT22;10742;51.816;8.662;2024-02-21T20:16:13;13.40;95.00
21169;DHT22;10742;51.816;8.662;2024-02-21T20:19:35;13.40;95.20
21169;DHT22;10742;51.816;8.662;2024-02-21T20:22:58;13.30;95.20
21169;DHT22;10742;51.816;8.662;2024-02-21T20:26:19;13.30;95.30
21169;DHT22;10742;51.816;8.662;2024-02-21T20:29:41;13.30;95.40
21169;DHT22;10742;51.816;8.662;2024-02-21T20:33:02;13.30;95.60
21169;DHT22;10742;51.816;8.662;2024-02-21T20:36:26;13.30;95.60
21169;DHT22;10742;51.816;8.662;2024-02-21T20:39:47;13.30;95.70
21169;DHT22;10742;51.816;8.662;2024-02-21T20:43:08;13.20;95.80
21169;DHT22;10742;51.816;8.662;2024-02-21T20:46:30;13.20;95.80
21169;DHT22;10742;51.816;8.662;2024-02-21T20:49:51;13.20;95.90
21169;DHT22;10742;51.816;8.662;2024-02-21T20:53:18;13.20;96.00
21169;DHT22;10742;51.816;8.662;2024-02-21T20:56:44;13.20;96.00
21169;DHT22;10742;51.816;8.662;2024-02-21T21:00:06;13.20;96.00
21169;DHT22;10742;51.816;8.662;2024-02-21T21:03:28;13.20;96.10
21169;DHT22;10742;51.816;8.662;2024-02-21T21:06:52;13.10;96.10
21169;DHT22;10742;51.816;8.662;2024-02-21T21:10:13;13.20;96.20
21169;DHT22;10742;51.816;8.662;2024-02-21T21:13:37;13.20;96.20
21169;DHT22;10742;51.816;8.662;2024-02-21T21:16:59;13.20;96.20
21169;DHT22;10742;51.816;8.662;2024-02-21T21:20:24;13.20;96.20
21169;DHT22;10742;51.816;8.662;2024-02-21T21:23:50;13.20;96.10
21169;DHT22;10742;51.816;8.662;2024-02-21T21:27:11;13.20;96.10